03:24
Airports
History
Links
Donate
Help keep this website running!
PayPal
Bitcoin
Information on this page is community maintained and may be outdated or inaccurate and is intended for reference only or PC simulator navigating!
Always use approved charts for navigating.
SJDS
Fabrica Fortaleza
Fabrica Fortaleza (SJDS)
Eusébio, Ceara, Brazil (61760)
(U)
Lat/Lng:3° 55' 38" S / 38° 30' 2" W
-3.927222 / -38.500556
Elevation:66'ft 20mMSL
ID / ICAO:SJDS
Runways:1
Longest:(13-31) 1,078.3m 3,538ft Asphalt
Distance To
Airport ID:
Nearby WeatherUpdated 03-26-17 03:00 GMT
Nearby weather at SBFZ, Pinto Martins located 10.7 nautical miles from SJDS
Altimeter: 29.88
Visibility: 6.2 statute miles
Wind: 5 knots (090°)
Temp: 27°c 81°f
Humidity: 88.8%

METAR: SBFZ 260300Z 09005KT 9999 SCT017 27/25 Q1012

(Powered by phpweather)
Runway 13 / 31
Dimensions:1078.3 x 32m 3538' x 105'ft
Surface:Asphalt
Edge Lights:Medium intensity
Runway 13 [A]Runway 31 [B]
Heading:108°TH 288°TH
Lat:
Lng:
3° 55' 32.42"S
38° 30' 18.62"W
3° 55' 43.58"S
38° 29' 45.38"W
Google Map
Nearby Airports
(C) Pinto Martins 10.7 NM
SBFZ (WX) NNW 348°
4 Feijo 11.4 NM
SNFF NW 315°
4 Sitio Vodo 20.9 NM
SNYX ESE 123°
4 Darinha 21.6 NM
SWWZ SE 127°
(C) Aracati 65.5 NM
SNAT SE 132°
4 Vicente Jose 67.9 NM
SNYZ SSE 158°
(C) Russas 78.2 NM
SNRS SSE 154°
VFR Chart
Flight Planning at SkyVector.com